createdAt,value
2023-01-01T00:01:43.849Z,53.20
2023-01-01T00:04:15.344Z,54.50
2023-01-01T00:06:43.593Z,54.60
2023-01-01T00:09:28.962Z,54.10
2023-01-01T00:11:55.756Z,53.50
2023-01-01T00:14:22.821Z,53.40
2023-01-01T00:16:49.720Z,53.60
2023-01-01T00:19:16.611Z,54.30
2023-01-01T00:21:43.397Z,53.90
2023-01-01T00:24:10.284Z,54.10
2023-01-01T00:26:37.040Z,53.80
2023-01-01T00:29:04.707Z,53.80
2023-01-01T00:31:31.799Z,54.50
2023-01-01T00:33:58.661Z,54.40
2023-01-01T00:36:27.607Z,54.40
2023-01-01T00:38:54.487Z,54.60
2023-01-01T00:41:21.915Z,53.90
2023-01-01T00:43:48.699Z,53.80
2023-01-01T00:46:15.886Z,53.90
2023-01-01T00:48:42.802Z,54.30
2023-01-01T00:51:10.006Z,54.20
2023-01-01T00:53:36.923Z,54.10
2023-01-01T00:56:04.463Z,53.80
2023-01-01T00:58:31.354Z,54.20
2023-01-01T01:00:58.529Z,53.70
2023-01-01T01:03:28.489Z,54.10
2023-01-01T01:05:59.933Z,53.60
2023-01-01T01:08:30.913Z,53.50
2023-01-01T01:11:11.663Z,53.90
2023-01-01T01:13:39.409Z,55.20
2023-01-01T01:16:14.808Z,53.70
2023-01-01T01:18:42.491Z,54.30
2023-01-01T01:21:10.355Z,54.30
2023-01-01T01:23:37.756Z,53.80
2023-01-01T01:26:18.830Z,53.70
2023-01-01T01:28:49.798Z,54.70
2023-01-01T01:31:18.841Z,54.10
2023-01-01T01:33:47.064Z,54.10
2023-01-01T01:36:15.259Z,54.20
2023-01-01T01:38:42.742Z,54.60
2023-01-01T01:41:25.765Z,54.50
2023-01-01T01:44:00.175Z,55.10
2023-01-01T01:46:30.545Z,56.20
2023-01-01T01:49:02.500Z,56.30
2023-01-01T01:51:35.478Z,56.80
2023-01-01T01:54:08.766Z,56.10
2023-01-01T01:56:53.945Z,56.20
2023-01-01T01:59:22.353Z,56.20
2023-01-01T02:01:49.169Z,55.40
2023-01-01T02:04:17.593Z,55.30
2023-01-01T02:06:45.157Z,55.90
2023-01-01T02:09:12.536Z,55.40
2023-01-01T02:11:39.345Z,55.00
2023-01-01T02:14:06.954Z,55.20
2023-01-01T02:16:44.111Z,55.20
2023-01-01T02:19:32.072Z,55.80
2023-01-01T02:22:13.868Z,56.00
2023-01-01T02:24:43.789Z,54.60
2023-01-01T02:27:27.967Z,56.30
2023-01-01T02:30:05.596Z,55.80
2023-01-01T02:32:50.312Z,55.50
2023-01-01T02:35:50.261Z,54.50
2023-01-01T02:38:45.790Z,56.80
2023-01-01T02:41:18.382Z,55.70
2023-01-01T02:43:45.779Z,56.00
2023-01-01T02:48:42.497Z,54.80
2023-01-01T02:51:15.335Z,55.50
2023-01-01T02:54:05.877Z,56.20
2023-01-01T02:56:47.613Z,56.10
2023-01-01T02:59:54.774Z,55.50
2023-01-01T03:02:37.046Z,56.50
2023-01-01T03:06:04.041Z,57.00
2023-01-01T03:08:47.181Z,56.20
2023-01-01T03:11:18.477Z,56.70
2023-01-01T03:13:49.623Z,56.00
2023-01-01T03:16:24.793Z,54.60
2023-01-01T03:19:13.446Z,56.60
2023-01-01T03:21:46.015Z,56.30
2023-01-01T03:24:22.899Z,54.30
2023-01-01T03:26:54.035Z,55.20
2023-01-01T03:29:23.646Z,56.80
2023-01-01T03:31:55.380Z,55.60
2023-01-01T03:34:30.346Z,55.60
2023-01-01T03:36:59.388Z,55.60
2023-01-01T03:39:38.179Z,55.10
2023-01-01T03:42:39.516Z,56.00
2023-01-01T03:45:19.259Z,55.50
2023-01-01T03:47:46.437Z,55.90
2023-01-01T03:50:14.771Z,54.60
2023-01-01T03:53:00.918Z,54.70
2023-01-01T03:55:53.858Z,55.80
2023-01-01T03:58:26.827Z,53.80
2023-01-01T04:01:04.574Z,55.70
2023-01-01T04:03:33.992Z,55.50
2023-01-01T04:06:02.917Z,55.00
2023-01-01T04:08:32.026Z,56.10
2023-01-01T04:11:21.413Z,55.50
2023-01-01T04:13:48.328Z,57.20
2023-01-01T04:16:15.457Z,57.60
2023-01-01T04:18:42.265Z,58.40
2023-01-01T04:21:09.006Z,58.10
2023-01-01T04:23:35.979Z,58.20
2023-01-01T04:26:02.733Z,58.50
2023-01-01T04:28:29.491Z,58.30
2023-01-01T04:33:21.971Z,59.80
2023-01-01T04:35:48.661Z,60.10
2023-01-01T04:38:15.423Z,59.90
2023-01-01T04:40:42.139Z,60.40
2023-01-01T04:43:08.909Z,61.30
2023-01-01T04:45:35.745Z,61.20
2023-01-01T04:48:05.768Z,61.60
2023-01-01T04:50:32.492Z,63.50
2023-01-01T04:52:59.412Z,62.10
2023-01-01T04:55:26.111Z,62.50
2023-01-01T04:57:52.811Z,62.70
2023-01-01T05:00:19.870Z,63.20
2023-01-01T05:02:46.637Z,62.80
2023-01-01T05:05:13.489Z,63.10
2023-01-01T05:07:40.211Z,62.60
2023-01-01T05:10:07.291Z,62.40
2023-01-01T05:12:33.986Z,62.50
2023-01-01T05:15:00.707Z,62.70
2023-01-01T05:17:27.392Z,62.10
2023-01-01T05:19:54.118Z,62.10
2023-01-01T05:22:20.813Z,61.90
2023-01-01T05:24:47.525Z,61.80
2023-01-01T05:27:14.274Z,61.90
2023-01-01T05:29:41.019Z,61.20
2023-01-01T05:36:59.166Z,60.20
2023-01-01T05:39:25.911Z,60.90
2023-01-01T05:41:52.746Z,60.00
2023-01-01T05:44:19.723Z,60.50
2023-01-01T05:46:46.538Z,60.00
2023-01-01T05:49:13.451Z,59.90
2023-01-01T05:54:06.319Z,59.50
2023-01-01T05:56:33.295Z,59.90
2023-01-01T05:59:01.528Z,60.00
2023-01-01T06:01:30.733Z,59.70
2023-01-01T06:03:59.229Z,60.50
2023-01-01T06:06:29.212Z,59.70
2023-01-01T06:09:01.311Z,60.30
2023-01-01T06:11:29.328Z,58.50
2023-01-01T06:13:58.377Z,58.50
2023-01-01T06:16:26.621Z,58.80
2023-01-01T06:18:53.469Z,58.30
2023-01-01T06:21:22.902Z,57.20
2023-01-01T06:23:49.783Z,58.20
2023-01-01T06:26:22.270Z,57.20
2023-01-01T06:28:50.364Z,59.00
2023-01-01T06:31:20.412Z,57.30
2023-01-01T06:33:48.178Z,58.40
2023-01-01T06:36:16.682Z,57.20
2023-01-01T06:38:46.034Z,57.40
2023-01-01T06:41:15.507Z,58.00
2023-01-01T06:43:43.366Z,57.60
2023-01-01T06:46:23.860Z,56.90
2023-01-01T06:48:56.500Z,58.30
2023-01-01T06:51:26.528Z,57.70
2023-01-01T06:53:54.205Z,57.00
2023-01-01T06:56:21.696Z,56.30
2023-01-01T06:58:49.445Z,56.80
2023-01-01T07:01:17.568Z,56.00
2023-01-01T07:03:50.358Z,56.70
2023-01-01T07:06:17.105Z,56.40
2023-01-01T07:08:43.885Z,55.90
2023-01-01T07:11:10.613Z,55.90
2023-01-01T07:13:37.398Z,55.70
2023-01-01T07:16:12.101Z,55.40
2023-01-01T07:18:39.597Z,55.40
2023-01-01T07:21:07.887Z,55.70
2023-01-01T07:23:35.480Z,56.20
2023-01-01T07:26:02.324Z,56.10
2023-01-01T07:28:29.117Z,55.40
2023-01-01T07:30:56.015Z,55.90
2023-01-01T07:33:24.316Z,55.70
2023-01-01T07:35:51.304Z,56.80
2023-01-01T07:38:18.291Z,56.10
2023-01-01T07:40:45.010Z,55.60
2023-01-01T07:43:14.830Z,55.80
2023-01-01T07:45:41.680Z,55.80
2023-01-01T07:48:14.211Z,56.30
2023-01-01T07:50:42.015Z,57.60
2023-01-01T07:53:09.098Z,56.60
2023-01-01T07:55:35.896Z,57.90
2023-01-01T07:58:02.813Z,56.80
2023-01-01T08:00:29.941Z,57.40
2023-01-01T08:02:58.530Z,57.20
2023-01-01T08:05:27.011Z,57.70
2023-01-01T08:07:54.612Z,57.40
2023-01-01T08:10:22.075Z,57.10
2023-01-01T08:12:48.925Z,57.80
2023-01-01T08:15:16.215Z,57.40
2023-01-01T08:17:46.867Z,57.60
2023-01-01T08:20:14.122Z,57.20
2023-01-01T08:22:41.813Z,57.70
2023-01-01T08:25:09.118Z,57.60
2023-01-01T08:27:36.275Z,57.70
2023-01-01T08:30:03.393Z,57.50
2023-01-01T08:32:30.145Z,57.40
2023-01-01T08:34:56.881Z,57.60
2023-01-01T08:37:24.159Z,57.80
2023-01-01T08:39:53.633Z,58.10
2023-01-01T08:42:20.360Z,57.70
2023-01-01T08:44:47.154Z,57.60
2023-01-01T08:47:21.858Z,57.80
2023-01-01T08:49:48.706Z,60.50
2023-01-01T08:52:15.830Z,57.90
2023-01-01T08:54:42.668Z,58.20
2023-01-01T08:57:09.800Z,58.20
2023-01-01T08:59:36.830Z,58.90
2023-01-01T09:02:04.687Z,58.10
2023-01-01T09:04:31.582Z,58.40
2023-01-01T09:06:59.420Z,58.20
2023-01-01T09:09:31.277Z,58.00
2023-01-01T09:12:01.740Z,58.10
2023-01-01T09:14:28.454Z,59.00
2023-01-01T09:16:55.184Z,58.20
2023-01-01T09:19:22.943Z,58.10
2023-01-01T09:21:49.747Z,59.40
2023-01-01T09:24:16.534Z,58.40
2023-01-01T09:26:43.253Z,58.40
2023-01-01T09:29:09.933Z,58.50
2023-01-01T09:31:36.941Z,58.50
2023-01-01T09:34:03.771Z,58.20
2023-01-01T09:36:32.026Z,58.40
2023-01-01T09:38:59.930Z,59.30
2023-01-01T09:42:00.132Z,59.00
2023-01-01T09:44:57.629Z,59.90
2023-01-01T09:47:44.107Z,59.80
2023-01-01T09:50:16.405Z,59.60
2023-01-01T09:52:53.889Z,59.60
2023-01-01T09:55:37.770Z,59.90
2023-01-01T09:58:04.652Z,59.70
2023-01-01T10:00:34.633Z,57.40
2023-01-01T10:03:10.721Z,58.40
2023-01-01T10:05:52.543Z,59.20
2023-01-01T10:08:25.285Z,59.40
2023-01-01T10:11:24.131Z,58.80
2023-01-01T10:13:53.282Z,58.40
2023-01-01T10:16:43.657Z,57.60
2023-01-01T10:19:30.229Z,59.30
2023-01-01T10:22:03.667Z,58.60
2023-01-01T10:24:36.310Z,58.70
2023-01-01T10:27:06.018Z,56.80
2023-01-01T10:29:47.005Z,58.50
2023-01-01T10:32:35.468Z,59.50
2023-01-01T10:35:10.167Z,60.20
2023-01-01T10:37:38.671Z,58.90
2023-01-01T10:40:14.820Z,59.00
2023-01-01T10:42:41.622Z,60.20
2023-01-01T10:45:17.450Z,58.90
2023-01-01T10:48:30.540Z,60.80
2023-01-01T10:51:24.799Z,60.90
2023-01-01T10:53:52.292Z,60.90
2023-01-01T10:56:22.333Z,59.20
2023-01-01T10:58:52.244Z,60.00
2023-01-01T11:01:25.331Z,58.70
2023-01-01T11:04:08.176Z,59.90
2023-01-01T11:06:39.591Z,61.90
2023-01-01T11:09:20.298Z,60.20
2023-01-01T11:11:54.311Z,60.70
2023-01-01T11:14:25.921Z,60.40
2023-01-01T11:16:53.965Z,61.00
2023-01-01T11:19:36.767Z,61.00
2023-01-01T11:22:05.426Z,60.90
2023-01-01T11:24:34.379Z,60.80
2023-01-01T11:27:20.837Z,61.30
2023-01-01T11:29:48.212Z,62.00
2023-01-01T11:32:22.255Z,60.50
2023-01-01T11:35:06.247Z,61.70
2023-01-01T11:37:37.741Z,62.30
2023-01-01T11:40:14.870Z,61.70
2023-01-01T11:42:47.377Z,61.90
2023-01-01T11:45:17.235Z,62.70
2023-01-01T11:47:44.909Z,63.10
2023-01-01T11:50:14.433Z,62.40
2023-01-01T11:52:52.688Z,60.90
2023-01-01T11:55:39.165Z,62.30
2023-01-01T11:58:26.909Z,62.40
2023-01-01T12:01:00.910Z,62.70
2023-01-01T12:03:38.082Z,63.50
2023-01-01T12:06:30.649Z,61.50
2023-01-01T12:09:18.624Z,63.20
2023-01-01T12:11:54.570Z,63.20
2023-01-01T12:14:59.055Z,63.20
2023-01-01T12:17:39.933Z,63.60
2023-01-01T12:20:12.237Z,63.90
2023-01-01T12:22:40.481Z,62.00
2023-01-01T12:25:13.134Z,62.60
2023-01-01T12:28:10.287Z,63.10
2023-01-01T12:30:55.840Z,63.60
2023-01-01T12:33:34.254Z,63.60
2023-01-01T12:36:23.306Z,61.20
2023-01-01T12:38:50.037Z,62.50
2023-01-01T12:41:25.938Z,62.00
2023-01-01T12:44:07.926Z,63.50
2023-01-01T12:46:45.714Z,61.20
2023-01-01T12:49:39.470Z,61.20
2023-01-01T12:52:26.971Z,62.40
2023-01-01T12:55:42.397Z,63.30
2023-01-01T12:58:40.658Z,63.10
2023-01-01T13:01:22.432Z,63.30
2023-01-01T13:03:51.565Z,63.20
2023-01-01T13:06:28.203Z,61.10
2023-01-01T13:09:19.409Z,61.80
2023-01-01T13:11:51.116Z,62.40
2023-01-01T13:14:18.287Z,62.10
2023-01-01T13:16:51.638Z,60.80
2023-01-01T13:19:37.588Z,62.10
2023-01-01T13:22:26.224Z,62.10
2023-01-01T13:25:11.282Z,62.10
2023-01-01T13:27:57.575Z,62.40
2023-01-01T13:30:46.744Z,62.20
2023-01-01T13:33:26.055Z,62.20
2023-01-01T13:36:08.703Z,61.80
2023-01-01T13:38:58.104Z,61.30
2023-01-01T13:41:39.969Z,60.80
2023-01-01T13:44:07.653Z,60.40
2023-01-01T13:46:43.725Z,59.20
2023-01-01T13:49:41.418Z,61.50
2023-01-01T13:52:23.379Z,61.10
2023-01-01T13:55:02.124Z,61.70
2023-01-01T13:57:40.923Z,61.80
2023-01-01T14:00:13.579Z,59.20
2023-01-01T14:03:02.876Z,59.40
2023-01-01T14:05:41.517Z,61.70
2023-01-01T14:08:33.210Z,59.50
2023-01-01T14:11:01.892Z,61.20
2023-01-01T14:13:32.288Z,60.10
2023-01-01T14:16:03.097Z,61.00
2023-01-01T14:18:48.712Z,61.10
2023-01-01T14:21:19.011Z,61.50
2023-01-01T14:23:57.274Z,61.50
2023-01-01T14:26:26.925Z,62.50
2023-01-01T14:28:55.700Z,61.80
2023-01-01T14:31:27.755Z,61.10
2023-01-01T14:33:54.648Z,62.00
2023-01-01T14:36:26.883Z,60.80
2023-01-01T14:38:56.213Z,62.40
2023-01-01T14:41:38.488Z,61.80
2023-01-01T14:44:15.488Z,61.90
2023-01-01T14:46:45.400Z,60.60
2023-01-01T14:49:18.026Z,62.40
2023-01-01T14:51:50.457Z,62.40
2023-01-01T14:54:20.677Z,62.10
2023-01-01T14:56:51.715Z,62.30
2023-01-01T14:59:26.662Z,62.70
2023-01-01T15:02:02.398Z,62.40
2023-01-01T15:04:30.056Z,63.20
2023-01-01T15:06:58.637Z,62.60
2023-01-01T15:09:26.766Z,62.40
2023-01-01T15:11:55.725Z,62.40
2023-01-01T15:14:39.973Z,62.60
2023-01-01T15:17:09.019Z,64.00
2023-01-01T15:19:37.207Z,63.00
2023-01-01T15:22:31.545Z,62.60
2023-01-01T15:25:00.032Z,64.50
2023-01-01T15:27:35.215Z,63.60
2023-01-01T15:30:08.381Z,63.90
2023-01-01T15:32:38.887Z,63.30
2023-01-01T15:35:32.998Z,63.40
2023-01-01T15:38:15.728Z,64.80
2023-01-01T15:40:47.918Z,65.10
2023-01-01T15:43:22.740Z,63.70
2023-01-01T15:45:55.479Z,65.20
2023-01-01T15:48:29.931Z,65.90
2023-01-01T15:51:06.994Z,65.40
2023-01-01T15:53:51.524Z,65.70
2023-01-01T15:56:20.729Z,66.30
2023-01-01T15:58:56.270Z,64.80
2023-01-01T16:01:26.191Z,65.30
2023-01-01T16:04:01.631Z,65.20
2023-01-01T16:06:28.946Z,66.00
2023-01-01T16:08:55.676Z,64.40
2023-01-01T16:11:22.477Z,64.50
2023-01-01T16:13:49.348Z,64.50
2023-01-01T16:16:28.894Z,64.50
2023-01-01T16:18:56.956Z,66.50
2023-01-01T16:21:33.252Z,65.40
2023-01-01T16:24:00.280Z,66.50
2023-01-01T16:26:27.154Z,64.70
2023-01-01T16:28:53.924Z,64.70
2023-01-01T16:31:25.870Z,64.70
2023-01-01T16:33:54.941Z,66.40
2023-01-01T16:36:22.527Z,65.40
2023-01-01T16:38:49.266Z,64.70
2023-01-01T16:41:17.805Z,64.40
2023-01-01T16:43:46.136Z,65.50
2023-01-01T16:46:13.867Z,65.10
2023-01-01T16:48:41.232Z,64.60
2023-01-01T16:51:19.307Z,64.60
2023-01-01T16:53:46.911Z,65.50
2023-01-01T16:56:14.325Z,64.40
2023-01-01T16:58:51.534Z,64.50
2023-01-01T17:01:21.341Z,64.70
2023-01-01T17:03:48.643Z,65.10
2023-01-01T17:06:15.445Z,64.90
2023-01-01T17:08:42.140Z,64.80
2023-01-01T17:11:13.923Z,64.30
2023-01-01T17:13:42.217Z,65.40
2023-01-01T17:16:09.984Z,64.80
2023-01-01T17:19:13.462Z,64.80
2023-01-01T17:21:24.029Z,64.40
2023-01-01T17:23:51.518Z,64.20
2023-01-01T17:26:21.020Z,64.90
2023-01-01T17:28:51.553Z,64.90
2023-01-01T17:31:22.666Z,64.60
2023-01-01T17:33:50.443Z,63.90
2023-01-01T17:36:17.748Z,63.80
2023-01-01T17:38:44.521Z,64.40
2023-01-01T17:41:14.139Z,64.10
2023-01-01T17:43:43.313Z,65.30
2023-01-01T17:46:25.521Z,65.60
2023-01-01T17:48:52.777Z,66.60
2023-01-01T17:51:20.616Z,65.20
2023-01-01T17:53:47.893Z,65.60
2023-01-01T17:56:17.829Z,65.50
2023-01-01T17:58:46.003Z,66.80
2023-01-01T18:01:21.765Z,66.30
2023-01-01T18:03:54.593Z,67.70
2023-01-01T18:06:22.055Z,66.80
2023-01-01T18:08:49.385Z,67.00
2023-01-01T18:11:16.174Z,66.50
2023-01-01T18:13:42.992Z,66.60
2023-01-01T18:16:10.158Z,66.70
2023-01-01T18:18:40.597Z,67.00
2023-01-01T18:21:14.320Z,68.70
2023-01-01T18:23:41.766Z,68.00
2023-01-01T18:26:10.436Z,67.90
2023-01-01T18:28:37.749Z,68.70
2023-01-01T18:31:09.226Z,67.70
2023-01-01T18:33:36.675Z,68.30
2023-01-01T18:36:05.449Z,68.60
2023-01-01T18:38:32.890Z,69.40
2023-01-01T18:41:25.201Z,68.80
2023-01-01T18:43:51.950Z,70.30
2023-01-01T18:46:22.265Z,68.70
2023-01-01T18:48:53.913Z,70.10
2023-01-01T18:51:24.989Z,69.90
2023-01-01T18:53:55.560Z,70.50
2023-01-01T18:56:23.363Z,71.10
2023-01-01T18:58:50.777Z,70.60
2023-01-01T19:01:23.527Z,70.30
2023-01-01T19:03:54.599Z,72.10
2023-01-01T19:06:29.896Z,71.50
2023-01-01T19:09:23.293Z,72.00
2023-01-01T19:11:54.515Z,72.60
2023-01-01T19:14:27.130Z,73.60
2023-01-01T19:16:57.690Z,72.20
2023-01-01T19:19:28.099Z,71.90
2023-01-01T19:22:06.615Z,72.50
2023-01-01T19:24:35.964Z,73.00
2023-01-01T19:27:13.053Z,72.60
2023-01-01T19:29:43.769Z,73.10
2023-01-01T19:32:10.533Z,73.30
2023-01-01T19:34:38.621Z,71.50
2023-01-01T19:37:05.827Z,71.80
2023-01-01T19:39:36.609Z,72.20
2023-01-01T19:42:04.978Z,72.60
2023-01-01T19:44:31.993Z,72.60
2023-01-01T19:47:00.485Z,72.40
2023-01-01T19:49:28.103Z,72.30
2023-01-01T19:51:55.344Z,72.80
2023-01-01T19:54:22.143Z,72.20
2023-01-01T19:56:50.265Z,72.10
2023-01-01T19:59:18.080Z,73.50
2023-01-01T20:01:45.046Z,72.20
2023-01-01T20:04:12.042Z,72.20
2023-01-01T20:06:38.885Z,72.20
2023-01-01T20:09:06.035Z,72.20
2023-01-01T20:11:32.835Z,72.20
2023-01-01T20:13:59.689Z,72.40
2023-01-01T20:16:26.536Z,72.20
2023-01-01T20:18:53.349Z,72.30
2023-01-01T20:21:38.700Z,72.30
2023-01-01T20:24:05.974Z,72.50
2023-01-01T20:26:32.652Z,72.80
2023-01-01T20:29:17.768Z,72.40
2023-01-01T20:31:44.540Z,72.20
2023-01-01T20:34:11.661Z,72.50
2023-01-01T20:36:57.103Z,73.00
2023-01-01T20:39:24.019Z,72.40
2023-01-01T20:41:50.815Z,72.80
2023-01-01T20:44:17.678Z,73.20
2023-01-01T20:46:45.952Z,73.00
2023-01-01T20:49:12.727Z,73.30
2023-01-01T20:51:39.427Z,72.90
2023-01-01T20:54:06.170Z,73.00
2023-01-01T20:56:32.993Z,73.60
2023-01-01T20:59:12.229Z,72.90
2023-01-01T21:01:47.302Z,73.10
2023-01-01T21:04:14.211Z,73.10
2023-01-01T21:06:40.996Z,73.50
2023-01-01T21:09:08.400Z,73.10
2023-01-01T21:11:35.661Z,73.20
2023-01-01T21:14:02.857Z,73.90
2023-01-01T21:16:37.754Z,73.60
2023-01-01T21:19:08.247Z,74.50
2023-01-01T21:21:38.110Z,75.20
2023-01-01T21:24:23.323Z,72.80
2023-01-01T21:26:52.424Z,75.80
2023-01-01T21:29:22.080Z,74.40
2023-01-01T21:32:10.967Z,74.80
2023-01-01T21:34:43.107Z,75.60
2023-01-01T21:37:45.643Z,75.20
2023-01-01T21:40:34.514Z,74.70
2023-01-01T21:43:31.901Z,75.00
2023-01-01T21:46:39.488Z,74.90
2023-01-01T21:49:15.968Z,74.90
2023-01-01T21:51:53.125Z,72.70
2023-01-01T21:54:36.245Z,74.90
2023-01-01T21:57:17.987Z,75.30
2023-01-01T21:59:46.904Z,75.90
2023-01-01T22:02:13.777Z,74.70
2023-01-01T22:04:48.319Z,73.50
2023-01-01T22:10:22.135Z,76.00
2023-01-01T22:12:53.718Z,74.80
2023-01-01T22:15:26.538Z,74.90
2023-01-01T22:18:03.865Z,76.10
2023-01-01T22:20:33.575Z,75.20
2023-01-01T22:23:05.357Z,75.20
2023-01-01T22:25:33.248Z,73.60
2023-01-01T22:28:15.385Z,74.30
2023-01-01T22:30:43.489Z,75.30
2023-01-01T22:33:26.881Z,74.50
2023-01-01T22:35:56.553Z,75.70
2023-01-01T22:38:29.583Z,74.90
2023-01-01T22:40:56.449Z,75.20
2023-01-01T22:43:31.752Z,74.00
2023-01-01T22:46:02.767Z,76.00
2023-01-01T22:48:39.022Z,74.20
2023-01-01T22:51:10.230Z,75.90
2023-01-01T22:53:36.977Z,75.50
2023-01-01T22:56:03.944Z,74.10
2023-01-01T22:58:30.671Z,74.10
2023-01-01T23:00:57.480Z,73.80
2023-01-01T23:03:24.367Z,73.50
2023-01-01T23:05:52.821Z,73.40
2023-01-01T23:08:20.255Z,74.70
2023-01-01T23:10:47.299Z,73.90
2023-01-01T23:13:32.519Z,73.70
2023-01-01T23:16:02.368Z,73.00
2023-01-01T23:18:31.984Z,72.90
2023-01-01T23:21:26.079Z,74.40
2023-01-01T23:23:55.574Z,73.60
2023-01-01T23:26:22.507Z,74.30
2023-01-01T23:28:49.505Z,73.50
2023-01-01T23:31:24.811Z,73.60
2023-01-01T23:33:53.764Z,74.10
2023-01-01T23:36:20.747Z,74.00
2023-01-01T23:38:47.506Z,73.80
2023-01-01T23:41:14.229Z,73.60
2023-01-01T23:43:43.478Z,73.50
2023-01-01T23:46:11.744Z,73.70
2023-01-01T23:48:38.908Z,74.20
2023-01-01T23:51:05.923Z,73.70
2023-01-01T23:53:32.682Z,73.50
2023-01-01T23:55:59.375Z,73.40
2023-01-01T23:58:26.101Z,73.30
